createdAt,value
2019-05-13T00:02:13.321Z,3.10
2019-05-13T00:07:20.873Z,2.53
2019-05-13T00:12:27.959Z,2.53
2019-05-13T00:17:35.040Z,2.33
2019-05-13T00:22:44.709Z,2.37
2019-05-13T00:27:53.658Z,2.87
2019-05-13T00:33:03.452Z,1.83
2019-05-13T00:38:09.697Z,2.10
2019-05-13T00:43:16.783Z,2.00
2019-05-13T00:48:23.940Z,2.20
2019-05-13T00:53:31.036Z,2.10
2019-05-13T00:58:38.098Z,2.37
2019-05-13T01:03:45.251Z,1.73
2019-05-13T01:08:53.601Z,1.90
2019-05-13T01:14:00.915Z,1.60
2019-05-13T01:19:08.144Z,1.87
2019-05-13T01:24:15.192Z,1.57
2019-05-13T01:29:23.859Z,1.53
2019-05-13T01:34:33.782Z,1.73
2019-05-13T01:39:40.369Z,1.97
2019-05-13T01:44:47.657Z,1.53
2019-05-13T01:49:54.923Z,1.57
2019-05-13T01:55:03.982Z,1.90
2019-05-13T02:00:14.041Z,1.60
2019-05-13T02:05:20.727Z,1.30
2019-05-13T02:10:50.293Z,1.63
2019-05-13T02:15:58.964Z,1.73
2019-05-13T02:21:06.036Z,1.53
2019-05-13T02:26:14.555Z,1.70
2019-05-13T02:31:31.918Z,1.90
2019-05-13T02:36:32.876Z,1.57
2019-05-13T02:41:39.041Z,2.10
2019-05-13T02:46:46.103Z,1.57
2019-05-13T02:51:54.674Z,1.83
2019-05-13T02:57:03.729Z,1.93
2019-05-13T03:02:12.382Z,2.03
2019-05-13T03:07:23.018Z,1.53
2019-05-13T03:12:28.235Z,1.50
2019-05-13T03:17:43.269Z,1.70
2019-05-13T03:22:52.613Z,1.90
2019-05-13T03:27:58.193Z,2.50
2019-05-13T03:33:11.142Z,2.20
2019-05-13T03:38:14.764Z,1.63
2019-05-13T03:43:23.146Z,1.57
2019-05-13T03:48:33.460Z,1.80
2019-05-13T03:53:43.277Z,1.70
2019-05-13T03:58:52.679Z,1.47
2019-05-13T04:03:58.586Z,2.23
2019-05-13T04:09:24.937Z,1.45
2019-05-13T04:14:15.826Z,2.43
2019-05-13T04:19:23.356Z,1.82
2019-05-13T04:24:33.335Z,1.77
2019-05-13T04:29:42.945Z,1.70
2019-05-13T04:34:49.277Z,1.40
2019-05-13T04:39:56.808Z,1.50
2019-05-13T04:45:04.360Z,1.37
2019-05-13T04:50:12.834Z,1.27
2019-05-13T04:55:22.959Z,1.03
2019-05-13T05:01:14.683Z,1.27
2019-05-13T05:06:42.419Z,1.10
2019-05-13T05:12:32.006Z,1.33
2019-05-13T05:17:59.366Z,1.10
2019-05-13T05:23:32.020Z,1.07
2019-05-13T05:29:04.875Z,1.30
2019-05-13T05:34:34.402Z,1.27
2019-05-13T05:39:42.131Z,1.40
2019-05-13T05:44:52.143Z,1.17
2019-05-13T05:50:02.835Z,1.27
2019-05-13T05:55:11.324Z,0.83
2019-05-13T06:00:18.739Z,1.20
2019-05-13T06:05:26.865Z,1.10
2019-05-13T06:10:46.720Z,1.10
2019-05-13T06:15:42.926Z,1.00
2019-05-13T06:20:51.257Z,0.80
2019-05-13T06:26:01.679Z,0.90
2019-05-13T06:31:07.854Z,0.90
2019-05-13T06:36:14.916Z,0.80
2019-05-13T06:41:22.117Z,1.03
2019-05-13T06:46:29.192Z,0.83
2019-05-13T06:51:36.298Z,0.77
2019-05-13T06:56:43.471Z,1.00
2019-05-13T07:01:51.449Z,0.90
2019-05-13T07:07:09.879Z,1.00
2019-05-13T07:12:07.897Z,0.80
2019-05-13T07:17:15.255Z,0.90
2019-05-13T07:22:23.349Z,0.88
2019-05-13T07:27:31.812Z,0.73
2019-05-13T07:32:42.122Z,1.13
2019-05-13T07:37:51.645Z,1.10
2019-05-13T07:42:58.120Z,1.10
2019-05-13T07:48:19.411Z,1.17
2019-05-13T07:53:18.808Z,0.80
2019-05-13T07:58:24.003Z,0.80
2019-05-13T08:03:31.786Z,0.77
2019-05-13T08:08:41.496Z,0.83
2019-05-13T08:13:51.563Z,1.00
2019-05-13T08:18:57.682Z,0.83
2019-05-13T08:24:07.439Z,0.83
2019-05-13T08:29:14.599Z,0.90
2019-05-13T08:34:22.745Z,1.10
2019-05-13T08:39:33.381Z,1.10
2019-05-13T08:44:41.476Z,0.80
2019-05-13T08:49:47.794Z,0.97
2019-05-13T08:54:54.878Z,0.97
2019-05-13T09:00:05.167Z,1.70
2019-05-13T09:05:12.077Z,0.87
2019-05-13T09:10:21.448Z,1.00
2019-05-13T09:15:31.422Z,0.87
2019-05-13T09:20:38.187Z,1.13
2019-05-13T09:25:46.288Z,1.20
2019-05-13T09:30:53.555Z,1.10
2019-05-13T09:36:02.184Z,0.90
2019-05-13T09:41:12.163Z,1.03
2019-05-13T09:46:22.378Z,1.43
2019-05-13T09:51:28.624Z,1.47
2019-05-13T09:56:36.268Z,1.07
2019-05-13T10:01:43.554Z,0.80
2019-05-13T10:06:50.687Z,0.90
2019-05-13T10:11:57.817Z,1.40
2019-05-13T10:17:06.687Z,1.25
2019-05-13T10:22:14.167Z,0.88
2019-05-13T10:27:22.518Z,0.93
2019-05-13T10:32:32.515Z,1.10
2019-05-13T10:37:41.752Z,1.03
2019-05-13T10:42:48.981Z,1.30
2019-05-13T10:47:56.162Z,1.10
2019-05-13T10:53:03.271Z,0.90
2019-05-13T10:58:12.318Z,0.87
2019-05-13T11:03:19.188Z,0.98
2019-05-13T11:08:26.316Z,1.23
2019-05-13T11:13:50.457Z,1.00
2019-05-13T11:18:42.269Z,1.10
2019-05-13T11:23:49.588Z,1.30
2019-05-13T11:28:58.232Z,1.20
2019-05-13T11:34:05.948Z,0.90
2019-05-13T11:39:13.288Z,0.90
2019-05-13T11:44:22.775Z,0.93
2019-05-13T11:49:31.591Z,1.07
2019-05-13T11:54:38.618Z,1.00
2019-05-13T11:59:45.838Z,0.83
2019-05-13T12:04:53.711Z,1.10
2019-05-13T12:10:02.726Z,0.93
2019-05-13T12:15:38.866Z,1.00
2019-05-13T12:20:20.071Z,1.07
2019-05-13T12:25:27.316Z,0.90
2019-05-13T12:30:34.527Z,0.70
2019-05-13T12:35:41.942Z,0.80
2019-05-13T12:40:52.869Z,0.72
2019-05-13T12:45:58.804Z,0.90
2019-05-13T12:51:06.600Z,0.80
2019-05-13T12:56:14.071Z,1.10
2019-05-13T13:01:23.835Z,1.55
2019-05-13T13:06:39.432Z,0.80
2019-05-13T13:11:38.991Z,1.43
2019-05-13T13:16:46.048Z,0.97
2019-05-13T13:21:53.806Z,0.70
2019-05-13T13:27:01.069Z,0.80
2019-05-13T13:32:08.320Z,1.00
2019-05-13T13:37:15.634Z,1.00
2019-05-13T13:42:22.912Z,1.13
2019-05-13T13:47:33.318Z,1.20
2019-05-13T13:52:38.708Z,1.30
2019-05-13T13:57:45.861Z,1.53
2019-05-13T14:02:54.271Z,1.43
2019-05-13T14:08:01.787Z,1.50
2019-05-13T14:13:08.991Z,1.10
2019-05-13T14:18:16.123Z,1.30
2019-05-13T14:23:23.437Z,1.63
2019-05-13T14:28:32.779Z,2.00
2019-05-13T14:33:42.260Z,1.30
2019-05-13T14:38:48.378Z,1.17
2019-05-13T14:43:55.433Z,1.10
2019-05-13T14:49:03.404Z,1.80
2019-05-13T14:54:10.728Z,1.30
2019-05-13T14:59:17.887Z,1.60
2019-05-13T15:04:25.443Z,1.37
2019-05-13T15:09:32.762Z,1.20
2019-05-13T15:14:42.438Z,1.40
2019-05-13T15:19:48.733Z,1.33
2019-05-13T15:24:55.831Z,1.40
2019-05-13T15:30:17.142Z,1.10
2019-05-13T15:35:13.346Z,1.07
2019-05-13T15:40:21.994Z,1.23
2019-05-13T15:45:31.748Z,1.30
2019-05-13T15:50:38.119Z,1.10
2019-05-13T15:55:45.535Z,1.30
2019-05-13T16:00:52.647Z,1.10
2019-05-13T16:06:01.656Z,0.90
2019-05-13T16:11:11.993Z,1.00
2019-05-13T16:16:21.505Z,1.05
2019-05-13T16:21:27.686Z,1.00
2019-05-13T16:26:34.774Z,1.00
2019-05-13T16:31:41.904Z,1.30
2019-05-13T16:36:49.086Z,1.40
2019-05-13T16:41:57.252Z,1.10
2019-05-13T16:47:05.680Z,1.03
2019-05-13T16:52:14.285Z,1.10
2019-05-13T16:57:21.518Z,1.00
2019-05-13T17:02:28.602Z,1.00
2019-05-13T17:07:35.820Z,1.40
2019-05-13T17:12:43.149Z,3.43
2019-05-13T17:17:51.464Z,2.63
2019-05-13T17:22:58.806Z,1.50
2019-05-13T17:28:07.216Z,1.47
2019-05-13T17:33:14.494Z,2.73
2019-05-13T17:38:22.068Z,1.47
2019-05-13T17:43:29.136Z,2.43
2019-05-13T17:48:36.349Z,1.43
2019-05-13T17:53:43.493Z,2.10
2019-05-13T17:58:50.585Z,2.30
2019-05-13T18:03:57.786Z,3.63
2019-05-13T18:09:07.531Z,1.97
2019-05-13T18:14:14.640Z,1.70
2019-05-13T18:19:22.131Z,3.70
2019-05-13T18:24:31.837Z,1.60
2019-05-13T18:29:39.163Z,1.80
2019-05-13T18:34:48.066Z,1.50
2019-05-13T18:39:55.870Z,2.07
2019-05-13T18:45:03.139Z,2.20
2019-05-13T18:50:11.612Z,1.60
2019-05-13T18:55:18.887Z,4.40
2019-05-13T19:00:26.198Z,2.07
2019-05-13T19:05:33.327Z,2.00
2019-05-13T19:10:41.487Z,2.43
2019-05-13T19:15:51.704Z,2.70
2019-05-13T19:21:01.913Z,4.57
2019-05-13T19:26:11.127Z,2.60
2019-05-13T19:31:17.610Z,1.90
2019-05-13T19:36:24.927Z,1.90
2019-05-13T19:41:32.017Z,2.33
2019-05-13T19:46:41.904Z,1.92
2019-05-13T19:51:48.053Z,2.37
2019-05-13T19:56:55.415Z,2.90
2019-05-13T20:02:02.623Z,2.80
2019-05-13T20:07:11.897Z,2.30
2019-05-13T20:12:21.227Z,3.70
2019-05-13T20:17:28.567Z,3.10
2019-05-13T20:22:35.703Z,2.60
2019-05-13T20:27:46.708Z,2.43
2019-05-13T20:32:53.916Z,3.27
2019-05-13T20:38:02.170Z,3.37
2019-05-13T20:43:11.659Z,3.20
2019-05-13T20:48:18.195Z,2.67
2019-05-13T20:53:25.287Z,2.43
2019-05-13T20:58:32.398Z,3.10
2019-05-13T21:03:41.890Z,3.73
2019-05-13T21:08:48.364Z,3.47
2019-05-13T21:13:56.442Z,3.57
2019-05-13T21:19:03.741Z,3.57
2019-05-13T21:24:11.844Z,4.03
2019-05-13T21:29:18.901Z,3.60
2019-05-13T21:34:25.980Z,3.33
2019-05-13T21:39:33.204Z,3.17
2019-05-13T21:44:41.995Z,3.60
2019-05-13T21:49:51.402Z,3.42
2019-05-13T21:54:57.793Z,3.50
2019-05-13T22:00:12.060Z,3.65
2019-05-13T22:05:22.191Z,3.73
2019-05-13T22:10:31.092Z,4.20
2019-05-13T22:15:38.374Z,3.43
2019-05-13T22:20:50.521Z,3.60
2019-05-13T22:25:54.464Z,4.07
2019-05-13T22:31:01.688Z,3.20
2019-05-13T22:36:08.859Z,3.77
2019-05-13T22:41:15.986Z,3.40
2019-05-13T22:46:23.291Z,3.70
2019-05-13T22:51:32.010Z,4.00
2019-05-13T22:56:41.184Z,3.60
2019-05-13T23:01:48.607Z,3.80
2019-05-13T23:06:56.094Z,4.37
2019-05-13T23:12:03.218Z,4.50
2019-05-13T23:17:12.289Z,4.80
2019-05-13T23:22:19.106Z,4.70
2019-05-13T23:27:26.157Z,4.80
2019-05-13T23:32:33.269Z,4.27
2019-05-13T23:37:41.655Z,4.33
2019-05-13T23:42:51.629Z,4.83
2019-05-13T23:47:58.176Z,5.07
2019-05-13T23:53:05.628Z,4.47
2019-05-13T23:58:12.742Z,4.63
